Terminal Aerodrome Forecast
Issued by NWS

Home | Current Version | Previous Version | Text Only | Print | Product List | Glossary On
Versions: 1 2 3 4 5 6 7 8 9 10 11 12 13 14 15 16 17 18
000
FTUS41 KBOX 290116 AAA
TAFFMH
TAF AMD
KFMH 290116Z 2901/2924 05013G22KT 3SM -RADZ BR OVC006
     FM290700 04015G27KT P6SM SCT006 OVC012
     FM291400 04015G25KT P6SM BKN012
     FM292200 05016G26KT P6SM BKN015=

USA.gov is the U.S. government's official web portal to all federal, state and local government web resources and services.